Terminal Aerodrome Forecast
Issued by NWS

Home | Current Version | Previous Version | Text Only | Print | Product List | Glossary On
Versions: 1 2 3 4 5 6 7 8 9 10 11 12 13 14 15 16 17 18 19 20 21 22 23 24 25 26 27 28
000
FTUS46 KLOX 291447 AAA
TAFLAX
TAF AMD
KLAX 291447Z 2915/3018 23005KT P6SM FEW009 FEW150
     FM291700 25007KT P6SM SKC
     FM292000 25012KT P6SM SKC
     FM300400 25006KT P6SM SKC
     FM301000 VRB03KT 6SM BR BKN007
     FM301600 23006KT P6SM SKC=

USA.gov is the U.S. government's official web portal to all federal, state and local government web resources and services.